Time;durP1;ratioP1;P1;durP2;ratioP2;P2;SDS_P1;SDS_P2;PMS_P1;PMS_P2;Temp;Humidity;BMP_temperature;BMP_pressure;BME280_temperature;BME280_humidity;BME280_pressure;Samples;Min_cycle;Max_cycle;Signal;HPM_P1;HPM_P2
2022/10/06 00:00:48;;;;;;;3.65;1.05;;;;;;;13.52;83.35;102130.59;5076217;28;20017;-73
2022/10/06 00:03:14;;;;;;;5.35;0.73;;;;;;;13.52;83.71;102135.03;5068099;28;20255;-74
2022/10/06 00:05:39;;;;;;;4.72;1.38;;;;;;;13.50;83.47;102142.06;5056073;28;20029;-74
2022/10/06 00:08:05;;;;;;;3.95;1.13;;;;;;;13.50;83.24;102145.59;5058273;28;20260;-74
2022/10/06 00:10:30;;;;;;;4.88;0.70;;;;;;;13.48;83.42;102142.16;5057711;28;20021;-74
2022/10/06 00:12:57;;;;;;;5.18;0.88;;;;;;;13.48;83.38;102144.78;5075836;28;20290;-74
2022/10/06 00:15:26;;;;;;;6.72;1.15;;;;;;;13.46;83.33;102150.97;5058768;28;20343;-74
2022/10/06 00:17:52;;;;;;;6.55;1.27;;;;;;;13.45;82.52;102165.94;5059361;28;20028;-74
2022/10/06 00:20:18;;;;;;;9.07;1.58;;;;;;;13.44;83.07;102182.59;5065120;28;20032;-74
2022/10/06 00:22:46;;;;;;;7.13;1.40;;;;;;;13.43;83.57;102183.53;5059159;28;20327;-74
2022/10/06 00:25:15;;;;;;;8.55;1.30;;;;;;;13.41;82.46;102188.00;5058778;28;20027;-74
2022/10/06 00:27:43;;;;;;;8.68;1.38;;;;;;;13.39;82.36;102193.28;5076734;28;20037;-74
2022/10/06 00:30:11;;;;;;;3.88;1.20;;;;;;;13.38;82.73;102191.56;5069194;28;20050;-74
2022/10/06 00:32:38;;;;;;;4.10;1.02;;;;;;;13.38;83.29;102201.22;5071224;28;20247;-74
2022/10/06 00:35:04;;;;;;;11.15;1.35;;;;;;;13.36;82.98;102197.78;5057590;28;20037;-74
2022/10/06 00:37:34;;;;;;;5.13;1.05;;;;;;;13.34;82.47;102205.72;5071042;28;20060;-74
2022/10/06 00:40:00;;;;;;;8.18;1.48;;;;;;;13.33;81.94;102218.91;5065410;28;20021;-74
2022/10/06 00:42:30;;;;;;;6.72;0.80;;;;;;;13.34;82.68;102225.91;5055145;28;20159;-74
2022/10/06 00:45:01;;;;;;;3.88;0.90;;;;;;;13.31;82.90;102228.63;5055465;28;20028;-73
2022/10/06 00:47:29;;;;;;;3.97;0.75;;;;;;;13.28;81.76;102229.56;5056638;28;20043;-74
2022/10/06 00:49:55;;;;;;;5.20;1.27;;;;;;;13.29;82.52;102227.78;5057502;28;20084;-74
2022/10/06 00:52:26;;;;;;;7.03;1.75;;;;;;;13.28;82.63;102231.31;5058354;28;20048;-75
2022/10/06 00:54:52;;;;;;;4.55;1.00;;;;;;;13.27;82.61;102246.25;5069646;28;20259;-74
2022/10/06 00:57:19;;;;;;;5.15;0.90;;;;;;;13.27;82.90;102242.75;5058287;28;20036;-74
2022/10/06 00:59:45;;;;;;;3.45;1.13;;;;;;;13.24;81.99;102254.22;5074908;28;20032;-74
2022/10/06 01:05:02;;;;;;;5.30;1.13;;;;;;;13.21;81.83;102257.81;5066340;28;20244;-74
2022/10/06 01:07:28;;;;;;;3.90;1.13;;;;;;;13.21;81.99;102270.13;5071060;28;20189;-74
2022/10/06 01:09:55;;;;;;;4.68;1.02;;;;;;;13.19;82.38;102269.31;5067790;28;20044;-73
2022/10/06 01:12:22;;;;;;;5.45;1.27;;;;;;;13.18;82.51;102265.78;5055992;28;20307;-74
2022/10/06 01:14:48;;;;;;;5.15;1.33;;;;;;;13.17;82.35;102277.22;5061922;28;20340;-74
2022/10/06 01:17:29;;;;;;;6.65;1.42;;;;;;;13.17;82.76;102279.88;5075764;28;20095;-74
2022/10/06 01:20:10;;;;;;;5.13;0.73;;;;;;;13.16;82.80;102287.78;5066842;28;20267;-74
2022/10/06 01:22:38;;;;;;;15.00;1.63;;;;;;;13.15;82.77;102286.06;5063890;28;20025;-74
2022/10/06 01:25:06;;;;;;;4.80;0.80;;;;;;;13.13;82.35;102283.47;5061980;28;20036;-74
2022/10/06 01:27:33;;;;;;;4.97;0.90;;;;;;;13.13;82.57;102295.75;5073430;28;20032;-74
2022/10/06 01:30:00;;;;;;;8.30;1.42;;;;;;;13.11;82.61;102308.94;5074312;28;20099;-74
2022/10/06 01:32:31;;;;;;;7.13;1.75;;;;;;;13.10;82.46;102306.34;5075008;28;20659;-74
2022/10/06 01:34:57;;;;;;;3.63;0.75;;;;;;;13.10;82.45;102314.25;5060992;28;20262;-73
2022/10/06 01:37:22;;;;;;;10.65;1.15;;;;;;;13.09;82.63;102320.44;5057250;28;20072;-74
2022/10/06 01:39:48;;;;;;;4.32;0.88;;;;;;;13.07;82.78;102318.69;5054735;28;20037;-74
2022/10/06 01:42:13;;;;;;;3.15;1.08;;;;;;;13.07;82.63;102320.47;5054140;28;20040;-74
2022/10/06 01:44:39;;;;;;;3.47;0.98;;;;;;;13.07;83.04;102320.47;5056101;28;20113;-74
2022/10/06 01:47:04;;;;;;;6.85;1.40;;;;;;;13.07;82.64;102323.09;5066464;28;20434;-74
2022/10/06 01:49:30;;;;;;;7.43;1.55;;;;;;;13.06;82.93;102324.00;5054002;28;20340;-74
2022/10/06 01:51:56;;;;;;;8.77;1.15;;;;;;;13.05;82.39;102331.03;5057748;28;20024;-74
2022/10/06 01:54:21;;;;;;;5.97;1.00;;;;;;;13.05;82.51;102335.44;5073932;28;20377;-74
2022/10/06 01:56:47;;;;;;;8.23;1.20;;;;;;;13.03;82.54;102327.56;5054351;28;20048;-74
2022/10/06 01:59:12;;;;;;;4.70;0.82;;;;;;;13.03;82.86;102327.56;5064617;28;20335;-74
2022/10/06 02:01:38;;;;;;;6.38;1.00;;;;;;;13.03;82.97;102329.34;5074446;28;20040;-74
2022/10/06 02:04:03;;;;;;;5.22;1.20;;;;;;;13.02;82.64;102335.50;5055968;28;20029;-74
2022/10/06 02:06:29;;;;;;;4.63;0.98;;;;;;;13.02;82.91;102338.13;5069961;28;20389;-74
2022/10/06 02:08:54;;;;;;;5.70;1.30;;;;;;;13.01;82.90;102345.16;5057023;28;20049;-74
2022/10/06 02:11:20;;;;;;;5.25;1.00;;;;;;;13.00;83.34;102343.44;5053972;28;20025;-74
2022/10/06 02:13:45;;;;;;;4.65;0.90;;;;;;;13.01;83.26;102355.69;5071926;28;20093;-74
2022/10/06 02:16:12;;;;;;;3.08;0.90;;;;;;;13.01;82.94;102366.22;5074575;28;20039;-74
2022/10/06 02:18:38;;;;;;;4.65;0.80;;;;;;;13.01;82.97;102360.09;5060579;28;20354;-74
2022/10/06 02:21:05;;;;;;;5.45;1.17;;;;;;;13.00;82.65;102366.25;5057060;28;20340;-74
2022/10/06 02:23:31;;;;;;;6.22;1.27;;;;;;;12.99;82.98;102368.03;5068315;28;20025;-74
2022/10/06 02:26:04;;;;;;;9.75;0.95;;;;;;;12.99;82.91;102367.16;5068872;28;20064;-74
2022/10/06 02:28:34;;;;;;;7.47;1.10;;;;;;;12.97;83.10;102369.84;5056921;28;20020;-74
2022/10/06 02:31:07;;;;;;;4.70;1.17;;;;;;;12.97;82.97;102368.94;5068171;28;20090;-74
2022/10/06 02:33:34;;;;;;;6.05;1.08;;;;;;;12.97;83.06;102382.09;5067372;28;20206;-74
2022/10/06 02:35:59;;;;;;;5.90;1.10;;;;;;;12.95;82.92;102379.53;5078770;28;20248;-74
2022/10/06 02:38:25;;;;;;;7.47;1.33;;;;;;;12.95;83.05;102376.00;5059715;28;20147;-74
2022/10/06 02:40:52;;;;;;;4.40;1.20;;;;;;;12.95;82.78;102383.91;5071937;28;20336;-74
2022/10/06 02:43:18;;;;;;;3.05;0.98;;;;;;;12.93;82.52;102390.97;5057365;28;20104;-74
2022/10/06 02:45:58;;;;;;;5.15;1.35;;;;;;;12.93;82.98;102398.88;5057898;28;20024;-73
2022/10/06 02:48:25;;;;;;;6.95;1.13;;;;;;;12.90;82.41;102399.81;5066876;28;20201;-74
2022/10/06 02:50:57;;;;;;;8.18;1.42;;;;;;;12.90;82.15;102409.44;5079126;28;20075;-74
2022/10/06 02:53:24;;;;;;;5.50;1.42;;;;;;;12.87;82.35;102413.03;5059453;28;20068;-73
2022/10/06 02:55:56;;;;;;;11.00;1.85;;;;;;;12.86;82.01;102412.19;5063430;28;20031;-73
2022/10/06 02:58:21;;;;;;;8.23;1.63;;;;;;;12.84;81.86;102416.63;5060757;28;20359;-74
2022/10/06 03:00:47;;;;;;;8.30;1.75;;;;;;;12.83;82.20;102422.75;5077550;28;20028;-74
2022/10/06 03:03:12;;;;;;;6.70;1.10;;;;;;;12.81;82.04;102419.31;5065941;28;20028;-74
2022/10/06 03:05:37;;;;;;;3.10;1.30;;;;;;;12.80;81.50;102430.72;5077752;28;20087;-73
2022/10/06 03:08:03;;;;;;;8.85;1.38;;;;;;;12.79;82.17;102429.00;5074106;28;20362;-74
2022/10/06 03:10:28;;;;;;;7.68;1.10;;;;;;;12.78;82.10;102429.03;5058857;28;20072;-74
2022/10/06 03:12:54;;;;;;;7.90;1.15;;;;;;;12.77;81.82;102449.22;5060579;28;20040;-73
2022/10/06 03:15:20;;;;;;;5.53;1.05;;;;;;;12.77;82.13;102443.06;5071455;28;20549;-74
2022/10/06 03:17:48;;;;;;;8.90;1.10;;;;;;;12.75;82.11;102450.13;5059217;28;20217;-74
2022/10/06 03:20:14;;;;;;;9.93;1.55;;;;;;;12.75;82.08;102453.66;5060372;28;20331;-74
2022/10/06 03:22:39;;;;;;;5.60;1.52;;;;;;;12.74;81.97;102462.44;5059298;28;20092;-74
2022/10/06 03:25:05;;;;;;;5.90;0.80;;;;;;;12.73;82.08;102458.06;5044085;28;20024;-74
2022/10/06 03:27:31;;;;;;;6.93;1.27;;;;;;;12.72;82.08;102463.38;5056761;28;20320;-74
2022/10/06 03:29:56;;;;;;;3.92;0.80;;;;;;;12.70;81.93;102460.78;5056994;28;20024;-73
2022/10/06 03:32:22;;;;;;;7.53;1.00;;;;;;;12.70;81.93;102465.16;5059564;28;20099;-73
2022/10/06 03:34:48;;;;;;;15.27;1.83;;;;;;;12.68;82.12;102473.94;5069886;28;20120;-73
2022/10/06 03:37:13;;;;;;;10.00;1.42;;;;;;;12.67;81.88;102472.22;5057483;28;20107;-74
2022/10/06 03:39:39;;;;;;;5.80;1.10;;;;;;;12.67;81.92;102487.13;5056847;28;20033;-74
2022/10/06 03:42:04;;;;;;;6.25;1.20;;;;;;;12.66;82.22;102490.63;5067444;28;20334;-74
2022/10/06 03:44:33;;;;;;;5.65;0.75;;;;;;;12.66;82.20;102486.28;5056156;28;20041;-74
2022/10/06 03:46:59;;;;;;;3.63;0.77;;;;;;;12.65;82.24;102484.53;5057975;28;20033;-73
2022/10/06 03:49:25;;;;;;;9.15;1.45;;;;;;;12.64;82.09;102495.06;5075748;28;20135;-74
2022/10/06 03:51:50;;;;;;;10.55;1.88;;;;;;;12.65;82.08;102499.44;5078235;28;20222;-74
2022/10/06 03:54:15;;;;;;;4.93;1.27;;;;;;;12.63;82.35;102496.00;5056879;28;20045;-74
2022/10/06 03:56:41;;;;;;;5.03;1.23;;;;;;;12.63;82.50;102507.34;5078344;28;20027;-73
2022/10/06 03:59:09;;;;;;;4.68;1.10;;;;;;;12.63;81.96;102511.75;5064216;28;20399;-74
2022/10/06 04:01:38;;;;;;;3.80;1.15;;;;;;;12.63;82.17;102509.13;5074159;28;20032;-74
2022/10/06 04:04:04;;;;;;;9.57;1.02;;;;;;;12.63;82.45;102522.28;5064681;28;20029;-74
2022/10/06 04:06:32;;;;;;;5.10;1.30;;;;;;;12.63;82.36;102519.66;5059702;28;20228;-74
2022/10/06 04:08:57;;;;;;;3.67;0.90;;;;;;;12.63;82.26;102525.75;5061568;28;20107;-74
2022/10/06 04:11:28;;;;;;;7.35;1.48;;;;;;;12.61;82.47;102535.44;5055833;28;20044;-74
2022/10/06 04:14:00;;;;;;;7.43;1.63;;;;;;;12.62;82.09;102538.94;5073889;28;20032;-74
2022/10/06 04:16:28;;;;;;;2.80;0.80;;;;;;;12.61;82.52;102539.84;5058325;28;20368;-74
2022/10/06 04:18:56;;;;;;;4.30;1.45;;;;;;;12.62;82.66;102552.94;5069211;28;20039;-74
2022/10/06 04:21:22;;;;;;;6.63;1.65;;;;;;;12.61;82.75;102545.97;5055088;28;20064;-74
2022/10/06 04:23:48;;;;;;;5.32;1.05;;;;;;;12.61;82.56;102556.47;5050556;28;20025;-74
2022/10/06 04:26:16;;;;;;;4.80;1.17;;;;;;;12.61;82.58;102553.00;5053608;28;20116;-74
2022/10/06 04:28:44;;;;;;;2.33;0.98;;;;;;;12.61;82.60;102560.88;5065483;28;20063;-74
2022/10/06 04:31:17;;;;;;;5.72;0.90;;;;;;;12.61;82.52;102563.50;5075906;28;20039;-74
2022/10/06 04:33:44;;;;;;;5.03;0.90;;;;;;;12.60;82.85;102564.38;5055830;28;20351;-74
2022/10/06 04:36:13;;;;;;;2.65;0.85;;;;;;;12.59;83.06;102566.16;5058198;28;20025;-74
2022/10/06 04:38:38;;;;;;;;;;;;;;;12.59;83.05;102563.53;5065944;28;20035;-74
2022/10/06 04:41:13;;;;;;;3.45;0.80;;;;;;;12.57;83.08;102560.06;5066429;28;20181;-74
2022/10/06 04:43:38;;;;;;;3.30;1.10;;;;;;;12.58;83.10;102566.19;5069040;28;20183;-74
2022/10/06 04:46:04;;;;;;;3.28;0.73;;;;;;;12.56;83.40;102562.72;5069551;28;20024;-74
2022/10/06 04:48:31;;;;;;;5.07;0.93;;;;;;;12.56;83.08;102575.88;5068998;28;20033;-74
2022/10/06 04:50:58;;;;;;;5.32;0.95;;;;;;;12.55;83.20;102577.66;5063919;28;20108;-74
2022/10/06 04:53:24;;;;;;;3.40;0.63;;;;;;;12.54;83.09;102573.28;5057808;28;20028;-74
2022/10/06 04:56:06;;;;;;;2.30;0.73;;;;;;;12.54;83.31;102575.91;5076877;28;20247;-74
2022/10/06 04:58:37;;;;;;;5.38;1.42;;;;;;;12.54;83.21;102580.28;5074474;28;20034;-74
2022/10/06 05:01:12;;;;;;;3.17;1.10;;;;;;;12.54;83.05;102582.94;5075349;28;20423;-74
2022/10/06 05:03:38;;;;;;;5.85;1.30;;;;;;;12.53;83.03;102589.06;5074744;28;20016;-74
2022/10/06 05:06:13;;;;;;;4.85;0.82;;;;;;;12.52;82.96;102603.13;5065550;28;20068;-74
2022/10/06 05:08:39;;;;;;;3.70;1.27;;;;;;;12.51;83.16;102609.25;5060834;28;20339;-74
2022/10/06 05:11:09;;;;;;;4.68;0.90;;;;;;;12.49;83.30;102610.13;5056711;28;20025;-74
2022/10/06 05:13:36;;;;;;;4.05;0.93;;;;;;;12.49;83.26;102615.41;5059537;28;20059;-74
2022/10/06 05:16:02;;;;;;;3.30;1.00;;;;;;;12.47;83.14;102614.56;5074249;28;20142;-74
2022/10/06 05:18:29;;;;;;;2.17;0.90;;;;;;;12.47;83.04;102613.72;5058508;28;20046;-74
2022/10/06 05:20:56;;;;;;;2.13;1.10;;;;;;;12.46;83.38;102611.97;5058397;28;20039;-74
2022/10/06 05:23:23;;;;;;;3.92;1.23;;;;;;;12.44;83.54;102619.91;5074217;28;20025;-74
2022/10/06 05:25:53;;;;;;;4.00;0.73;;;;;;;12.43;83.16;102626.03;5056399;28;20217;-74
2022/10/06 05:28:19;;;;;;;3.40;0.85;;;;;;;12.43;82.88;102631.31;5071227;28;20024;-76
2022/10/06 05:31:03;;;;;;;5.60;1.10;;;;;;;12.42;82.76;102634.81;5060568;28;20232;-74
2022/10/06 05:33:31;;;;;;;4.30;1.00;;;;;;;12.40;83.29;102641.00;5055417;28;20102;-74
2022/10/06 05:35:58;;;;;;;7.20;1.20;;;;;;;12.41;82.88;102642.75;5056317;28;20028;-75
2022/10/06 05:38:24;;;;;;;5.35;1.02;;;;;;;12.39;83.33;102645.41;5073173;28;20032;-74
2022/10/06 05:40:50;;;;;;;5.30;1.30;;;;;;;12.38;83.31;102646.28;5058814;28;20028;-74
2022/10/06 05:43:17;;;;;;;6.40;1.13;;;;;;;12.37;82.99;102647.19;5055718;28;20077;-74
2022/10/06 05:45:56;;;;;;;6.18;1.20;;;;;;;12.36;83.03;102658.59;5055323;28;20031;-74
2022/10/06 05:48:22;;;;;;;3.33;1.05;;;;;;;12.34;83.21;102662.16;5054712;28;20106;-74
2022/10/06 05:50:48;;;;;;;3.55;0.90;;;;;;;12.33;82.99;102669.16;5022295;28;20481;-74
2022/10/06 05:53:14;;;;;;;4.05;1.05;;;;;;;12.33;82.75;102663.03;5059486;28;20040;-74
2022/10/06 05:55:40;;;;;;;5.07;1.52;;;;;;;12.31;83.10;102673.56;5055679;28;20043;-74
2022/10/06 05:58:05;;;;;;;4.85;1.63;;;;;;;12.30;82.86;102674.47;5078952;28;20036;-74
2022/10/06 06:00:30;;;;;;;6.13;1.52;;;;;;;12.29;83.12;102676.22;5064114;28;20028;-74
2022/10/06 06:02:56;;;;;;;5.20;1.30;;;;;;;12.28;83.17;102677.13;5055982;28;20028;-74
2022/10/06 06:05:21;;;;;;;3.95;1.27;;;;;;;12.28;83.10;102676.28;5057109;28;20113;-74
2022/10/06 06:07:46;;;;;;;5.45;1.23;;;;;;;12.26;83.26;102684.19;5046419;28;20256;-74
2022/10/06 06:10:12;;;;;;;5.13;1.20;;;;;;;12.26;83.28;102683.28;5069739;28;20103;-74
2022/10/06 06:12:37;;;;;;;3.10;0.93;;;;;;;12.25;83.16;102681.56;5076700;28;20184;-74
2022/10/06 06:17:48;;;;;;;3.78;1.17;;;;;;;12.23;82.73;102686.00;5073106;28;20290;-74
2022/10/06 06:20:13;;;;;;;3.03;1.10;;;;;;;12.22;82.73;102694.75;5038853;28;20471;-74
2022/10/06 06:22:39;;;;;;;4.40;1.10;;;;;;;12.20;82.65;102692.16;5073811;28;20033;-74
2022/10/06 06:25:05;;;;;;;6.18;1.42;;;;;;;12.21;82.56;102698.28;5055378;28;20268;-74
2022/10/06 06:27:30;;;;;;;3.80;1.15;;;;;;;12.19;82.59;102698.31;5055021;28;20173;-74
2022/10/06 06:29:57;;;;;;;3.97;1.70;;;;;;;12.17;82.94;102702.72;5052936;28;20075;-74
2022/10/06 06:32:22;;;;;;;5.60;1.27;;;;;;;12.18;83.01;102707.06;5047448;28;20297;-74
2022/10/06 06:34:48;;;;;;;2.72;1.05;;;;;;;12.18;83.13;102709.69;5068444;28;20029;-74
2022/10/06 06:37:13;;;;;;;2.85;0.88;;;;;;;12.17;83.33;102714.97;5065816;28;20109;-74
2022/10/06 06:39:39;;;;;;;4.20;1.27;;;;;;;12.17;83.49;102723.75;5069042;28;20032;-74
2022/10/06 06:42:07;;;;;;;12.43;1.50;;;;;;;12.16;82.98;102721.16;5055499;28;20251;-74
2022/10/06 06:44:33;;;;;;;6.65;1.67;;;;;;;12.15;82.96;102729.91;5072233;28;20217;-74
2022/10/06 06:47:00;;;;;;;2.95;1.20;;;;;;;12.15;83.00;102735.16;5066024;28;20146;-74
2022/10/06 06:49:25;;;;;;;7.35;1.63;;;;;;;12.13;82.78;102745.69;5044812;28;20100;-74
2022/10/06 06:51:53;;;;;;;3.20;1.02;;;;;;;12.13;82.92;102748.31;5049513;28;20037;-74
2022/10/06 06:54:19;;;;;;;5.40;1.38;;;;;;;12.12;83.02;102754.47;5043644;28;20229;-74
2022/10/06 06:56:45;;;;;;;5.03;1.48;;;;;;;12.12;83.34;102759.72;5068261;28;20278;-74
2022/10/06 06:59:12;;;;;;;4.05;1.13;;;;;;;12.11;82.81;102757.97;5071761;28;20115;-73
2022/10/06 07:01:43;;;;;;;3.08;1.10;;;;;;;12.09;82.85;102765.88;5054900;28;20215;-74
2022/10/06 07:04:09;;;;;;;3.25;1.15;;;;;;;12.10;83.01;102762.38;5072953;28;20043;-73
2022/10/06 07:06:36;;;;;;;7.93;1.60;;;;;;;12.09;83.00;102771.13;5022367;28;20368;-74
2022/10/06 07:09:03;;;;;;;4.13;0.98;;;;;;;12.10;82.95;102783.38;5045733;28;20024;-74
2022/10/06 07:11:31;;;;;;;4.15;0.77;;;;;;;12.10;83.69;102782.53;5053484;28;20155;-74
2022/10/06 07:14:00;;;;;;;7.15;1.23;;;;;;;12.10;83.25;102790.41;5063054;28;20209;-74
2022/10/06 07:27:27;;;;;;;4.78;1.23;;;;;;;12.07;83.09;102801.81;5075772;28;20074;-74
2022/10/06 07:29:53;;;;;;;4.40;1.15;;;;;;;12.07;83.20;102798.31;5073948;28;20224;-73
2022/10/06 07:32:24;;;;;;;6.40;1.08;;;;;;;12.07;83.46;102801.81;5024751;28;20262;-74
2022/10/06 07:34:49;;;;;;;5.65;1.15;;;;;;;12.06;83.29;102807.06;5075849;28;20352;-74
2022/10/06 07:37:16;;;;;;;7.03;1.52;;;;;;;12.07;83.12;102809.69;5056401;28;20059;-74
2022/10/06 07:39:43;;;;;;;3.17;0.95;;;;;;;12.06;82.98;102815.84;5064088;28;20041;-73
2022/10/06 07:42:11;;;;;;;2.88;1.00;;;;;;;12.07;83.10;102821.94;5050399;28;20028;-74
2022/10/06 07:44:38;;;;;;;2.95;0.93;;;;;;;12.07;83.24;102824.59;5047585;28;20245;-73
2022/10/06 07:47:04;;;;;;;2.63;0.80;;;;;;;12.07;83.34;102825.44;5060954;28;20092;-73
2022/10/06 07:49:30;;;;;;;4.85;0.95;;;;;;;12.08;83.36;102834.22;5047106;28;20312;-74
2022/10/06 07:51:57;;;;;;;2.28;0.80;;;;;;;12.08;83.41;102835.06;5059733;28;20103;-73
2022/10/06 07:54:23;;;;;;;5.95;1.10;;;;;;;12.08;83.35;102840.31;5046986;28;20032;-74
2022/10/06 07:56:49;;;;;;;7.28;1.45;;;;;;;12.08;83.60;102834.22;5035529;28;20393;-74
2022/10/06 07:59:15;;;;;;;3.88;0.90;;;;;;;12.09;83.39;102844.66;5044434;28;20017;-73
2022/10/06 08:01:42;;;;;;;2.85;1.05;;;;;;;12.08;83.79;102845.56;5062900;28;20025;-74
2022/10/06 08:04:09;;;;;;;4.50;1.25;;;;;;;12.09;83.57;102852.53;5046604;28;20028;-74
2022/10/06 08:06:34;;;;;;;6.43;1.00;;;;;;;12.09;83.47;102857.78;5045234;28;20028;-73
2022/10/06 08:08:59;;;;;;;7.68;1.35;;;;;;;12.09;82.93;102863.06;5048167;28;20038;-73
2022/10/06 08:11:25;;;;;;;5.30;1.05;;;;;;;12.09;83.16;102857.78;5047095;28;20033;-73
2022/10/06 08:13:51;;;;;;;5.43;1.10;;;;;;;12.11;83.25;102865.66;5044669;28;20082;-73
2022/10/06 08:16:19;;;;;;;5.78;1.15;;;;;;;12.12;82.39;102858.66;5036972;28;20086;-75
2022/10/06 08:18:52;;;;;;;5.95;1.20;;;;;;;12.14;82.44;102870.00;5065798;28;20044;-73
2022/10/06 08:21:23;;;;;;;3.95;1.00;;;;;;;12.14;82.07;102854.25;5043485;28;20071;-74
2022/10/06 08:23:50;;;;;;;4.03;1.17;;;;;;;12.13;82.10;102865.63;5057251;28;20020;-73
2022/10/06 08:26:17;;;;;;;6.43;1.20;;;;;;;12.15;82.21;102864.75;5064636;28;20044;-74
2022/10/06 08:28:49;;;;;;;4.95;0.80;;;;;;;12.16;81.89;102874.34;5060750;28;20036;-73
2022/10/06 08:31:17;;;;;;;6.03;1.30;;;;;;;12.16;82.49;102882.22;5073768;28;20036;-73
2022/10/06 08:33:44;;;;;;;4.75;0.88;;;;;;;12.17;82.08;102885.72;5074647;28;20308;-74
2022/10/06 08:36:13;;;;;;;12.25;1.23;;;;;;;12.17;82.42;102897.09;5041989;28;20433;-74
2022/10/06 08:38:39;;;;;;;1.63;0.70;;;;;;;12.20;81.96;102898.81;5075249;28;20311;-74
2022/10/06 08:41:32;;;;;;;6.20;0.90;;;;;;;12.19;81.79;102897.94;5066846;28;20025;-74
2022/10/06 08:44:17;;;;;;;2.88;0.75;;;;;;;12.20;81.69;102899.66;5060098;28;20036;-74
2022/10/06 08:47:12;;;;;;;6.45;0.93;;;;;;;12.21;82.11;102903.19;5043366;28;20042;-74
2022/10/06 08:49:43;;;;;;;3.35;0.80;;;;;;;12.20;82.00;102906.69;5072386;28;20066;-74
2022/10/06 08:52:44;;;;;;;5.07;0.70;;;;;;;12.21;81.27;102914.56;5065339;28;20045;-74
2022/10/06 08:55:48;;;;;;;4.18;0.80;;;;;;;12.22;81.27;102916.28;5049738;28;20335;-74
2022/10/06 08:58:49;;;;;;;4.25;0.80;;;;;;;12.22;81.21;102925.91;5066287;28;20037;-74
2022/10/06 09:01:25;;;;;;;6.22;0.85;;;;;;;12.23;81.57;102920.66;5054647;28;20318;-74
2022/10/06 09:03:55;;;;;;;5.97;0.82;;;;;;;12.27;81.51;102924.09;5040134;28;20029;-74
2022/10/06 09:06:34;;;;;;;7.03;1.02;;;;;;;12.27;80.76;102927.59;5066880;28;20055;-74
2022/10/06 09:09:10;;;;;;;4.53;0.95;;;;;;;12.30;81.14;102931.94;5074090;28;20333;-74
2022/10/06 09:11:51;;;;;;;5.53;0.85;;;;;;;12.32;81.16;102939.81;5062450;28;20074;-73
2022/10/06 09:14:49;;;;;;;6.03;0.60;;;;;;;12.34;81.08;102938.88;5074579;28;20028;-74
2022/10/06 09:17:23;;;;;;;4.53;1.02;;;;;;;12.37;80.87;102937.97;5018132;28;20045;-74
2022/10/06 09:20:19;;;;;;;4.93;0.55;;;;;;;12.39;81.19;102938.84;5050022;28;20028;-74
2022/10/06 09:22:48;;;;;;;3.53;0.73;;;;;;;12.41;81.20;102943.16;5067485;28;20098;-74
2022/10/06 09:25:18;;;;;;;3.35;0.65;;;;;;;12.44;81.11;102947.50;5066074;28;20133;-74
2022/10/06 09:27:49;;;;;;;4.57;0.90;;;;;;;12.44;80.96;102948.38;5062988;28;20224;-74
2022/10/06 09:30:15;;;;;;;5.82;0.90;;;;;;;12.47;80.85;102947.44;5072064;28;20048;-74
2022/10/06 09:32:47;;;;;;;5.70;0.73;;;;;;;12.49;80.72;102946.53;5049007;28;20403;-74
2022/10/06 09:35:22;;;;;;;8.05;0.80;;;;;;;12.49;81.11;102954.41;5043501;28;20347;-74
2022/10/06 09:38:03;;;;;;;5.25;1.27;;;;;;;12.51;80.70;102951.75;5043516;28;20347;-74
2022/10/06 09:40:48;;;;;;;11.35;2.00;;;;;;;12.52;80.53;102950.03;5074429;28;20039;-74
2022/10/06 09:43:19;;;;;;;6.47;0.95;;;;;;;12.53;80.74;102962.25;5058092;28;20020;-74
2022/10/06 09:45:44;;;;;;;5.53;1.10;;;;;;;12.52;80.63;102958.78;5061031;28;20035;-74
2022/10/06 09:48:30;;;;;;;9.52;1.10;;;;;;;12.52;80.64;102958.78;5049212;28;20056;-74
2022/10/06 09:51:05;;;;;;;10.50;1.30;;;;;;;12.54;80.48;102956.13;5057357;28;20268;-73
2022/10/06 09:53:30;;;;;;;2.90;0.75;;;;;;;12.54;80.39;102964.00;5069492;28;20059;-74
2022/10/06 09:55:56;;;;;;;4.90;1.00;;;;;;;12.56;80.61;102962.22;5062607;28;20028;-74
2022/10/06 09:58:21;;;;;;;3.40;0.90;;;;;;;12.56;80.67;102957.81;5063972;28;20035;-74
2022/10/06 10:01:10;;;;;;;5.13;2.22;;;;;;;12.57;80.86;102956.06;5061346;28;20039;-74
2022/10/06 10:03:44;;;;;;;4.28;0.98;;;;;;;12.58;80.69;102965.69;5052482;28;20331;-74
2022/10/06 10:06:21;;;;;;;7.15;0.95;;;;;;;12.60;80.37;102959.50;5033222;28;20028;-74
2022/10/06 10:08:46;;;;;;;9.07;1.10;;;;;;;12.63;80.78;102966.50;5070895;28;20425;-75
2022/10/06 10:14:13;;;;;;;6.55;0.80;;;;;;;12.69;79.79;102971.66;5053127;28;20078;-74
2022/10/06 10:16:38;;;;;;;4.70;1.02;;;;;;;12.74;79.92;102976.84;5053037;28;20033;-74
2022/10/06 10:19:04;;;;;;;5.63;0.75;;;;;;;12.77;79.60;102982.03;5053730;28;20198;-74
2022/10/06 10:21:32;;;;;;;5.30;1.58;;;;;;;12.81;79.40;102975.84;5034708;28;20259;-74
2022/10/06 10:24:01;;;;;;;5.28;0.90;;;;;;;12.83;79.24;102980.19;5035948;28;20029;-74
2022/10/06 10:26:35;;;;;;;6.43;1.23;;;;;;;12.85;79.30;102978.41;5052183;28;20232;-74
2022/10/06 10:29:21;;;;;;;6.60;0.80;;;;;;;12.86;78.75;102977.50;5054096;28;20021;-74
2022/10/06 10:32:15;;;;;;;5.60;1.00;;;;;;;12.90;79.18;102995.84;5040711;28;20039;-74
2022/10/06 10:35:02;;;;;;;4.55;0.98;;;;;;;12.91;78.21;102989.72;5054737;28;20282;-74
2022/10/06 10:37:39;;;;;;;5.90;1.23;;;;;;;12.94;79.14;102981.78;5072056;28;20283;-74
2022/10/06 10:40:26;;;;;;;6.30;0.88;;;;;;;12.97;79.23;102987.88;5072743;28;20036;-74
2022/10/06 10:43:00;;;;;;;5.03;1.23;;;;;;;12.98;79.07;102984.31;5073930;28;20055;-74
2022/10/06 10:45:51;;;;;;;5.25;0.93;;;;;;;13.01;79.24;102988.69;5054079;28;20136;-74
2022/10/06 10:48:45;;;;;;;8.25;0.95;;;;;;;13.02;79.51;102990.41;5072851;28;20024;-74
2022/10/06 10:51:18;;;;;;;3.60;0.82;;;;;;;13.01;79.27;102984.28;5048754;28;20206;-74
2022/10/06 10:53:52;;;;;;;4.68;0.90;;;;;;;13.02;78.88;102990.41;5053637;28;20138;-74
2022/10/06 10:56:21;;;;;;;12.13;1.30;;;;;;;13.03;79.41;102990.38;5059169;28;20028;-74
2022/10/06 10:58:52;;;;;;;6.20;1.13;;;;;;;13.03;78.83;102985.13;5059417;28;20251;-74
2022/10/06 11:01:53;;;;;;;7.80;1.45;;;;;;;13.06;79.05;102986.81;5057302;28;20029;-74
2022/10/06 11:04:19;;;;;;;7.93;1.15;;;;;;;13.07;79.46;102989.44;5063123;28;20289;-74
2022/10/06 11:06:58;;;;;;;3.92;1.00;;;;;;;13.11;79.49;102994.66;5075967;28;20036;-74
2022/10/06 11:09:42;;;;;;;;;;;;;;;13.11;79.55;102990.25;5076559;28;20029;-74
2022/10/06 11:12:18;;;;;;;8.18;1.20;;;;;;;13.13;79.71;102990.22;5075715;28;19912;-74
2022/10/06 11:15:04;;;;;;;4.63;0.90;;;;;;;13.15;80.58;102981.44;5068705;28;20029;-74
2022/10/06 11:17:49;;;;;;;9.18;1.30;;;;;;;13.17;80.16;102987.53;5054673;28;20040;-74
2022/10/06 11:20:52;;;;;;;6.88;0.82;;;;;;;13.20;80.17;102992.72;5060468;28;20206;-74
2022/10/06 11:23:29;;;;;;;7.10;1.00;;;;;;;13.22;80.59;102993.59;5058254;28;20359;-74
2022/10/06 11:26:08;;;;;;;3.35;0.73;;;;;;;13.25;80.34;102990.00;5075515;28;20039;-74
2022/10/06 11:28:43;;;;;;;8.45;1.27;;;;;;;13.26;79.24;102991.72;5057240;28;20040;-74
2022/10/06 11:31:17;;;;;;;6.47;1.00;;;;;;;13.31;80.03;102995.19;5075293;28;20029;-74
2022/10/06 11:33:52;;;;;;;10.50;1.50;;;;;;;13.34;80.08;102997.78;5076770;28;20367;-74
2022/10/06 11:36:29;;;;;;;6.00;0.80;;;;;;;13.37;80.32;102994.22;5074890;28;20068;-74
2022/10/06 11:39:10;;;;;;;7.20;1.27;;;;;;;13.42;80.28;103001.16;5076840;28;20051;-74
2022/10/06 11:41:48;;;;;;;4.70;0.93;;;;;;;13.45;79.85;103000.22;5075457;28;20097;-74
2022/10/06 11:44:27;;;;;;;5.03;0.90;;;;;;;13.48;80.53;102997.53;5069351;28;20035;-74
2022/10/06 11:46:57;;;;;;;2.83;0.75;;;;;;;13.52;79.35;103003.63;5037978;28;20234;-74
2022/10/06 11:49:28;;;;;;;8.30;1.20;;;;;;;13.54;79.04;102996.56;5058230;28;20024;-74
2022/10/06 11:51:54;;;;;;;5.60;1.05;;;;;;;13.55;77.98;102995.63;5057288;28;20036;-74
2022/10/06 11:54:38;;;;;;;5.55;1.10;;;;;;;13.57;77.33;103002.63;5075231;28;20081;-74
2022/10/06 11:57:25;;;;;;;3.60;0.70;;;;;;;13.59;77.02;102992.94;5075886;28;20224;-74